createdAt,value
2022-10-04T00:00:43.072Z,7.80
2022-10-04T00:03:37.223Z,7.80
2022-10-04T00:06:28.170Z,7.80
2022-10-04T00:09:23.589Z,7.80
2022-10-04T00:12:21.399Z,7.80
2022-10-04T00:15:23.437Z,7.80
2022-10-04T00:18:25.329Z,7.80
2022-10-04T00:21:14.250Z,7.80
2022-10-04T00:24:12.125Z,7.80
2022-10-04T00:27:23.067Z,7.80
2022-10-04T00:30:22.468Z,7.90
2022-10-04T00:33:11.201Z,7.90
2022-10-04T00:35:59.961Z,7.90
2022-10-04T00:39:04.705Z,7.80
2022-10-04T00:42:06.001Z,7.80
2022-10-04T00:45:01.110Z,7.70
2022-10-04T00:48:03.829Z,7.70
2022-10-04T00:50:57.920Z,7.70
2022-10-04T00:54:00.102Z,7.70
2022-10-04T00:56:52.796Z,7.70
2022-10-04T00:59:44.526Z,7.60
2022-10-04T01:02:40.677Z,7.50
2022-10-04T01:05:35.380Z,7.50
2022-10-04T01:08:28.492Z,7.50
2022-10-04T01:11:19.780Z,7.50
2022-10-04T01:14:15.155Z,7.50
2022-10-04T01:17:05.150Z,7.50
2022-10-04T01:19:55.934Z,7.50
2022-10-04T01:22:51.775Z,7.40
2022-10-04T01:25:52.821Z,7.40
2022-10-04T01:28:41.502Z,7.40
2022-10-04T01:31:31.386Z,7.40
2022-10-04T01:34:23.046Z,7.40
2022-10-04T01:37:11.867Z,7.60
2022-10-04T01:40:02.331Z,7.70
2022-10-04T01:42:55.818Z,7.60
2022-10-04T01:45:48.172Z,7.50
2022-10-04T01:48:39.047Z,7.50
2022-10-04T01:51:32.407Z,7.30
2022-10-04T01:54:24.717Z,7.30
2022-10-04T01:57:18.988Z,7.30
2022-10-04T02:00:10.442Z,7.40
2022-10-04T02:03:02.182Z,7.40
2022-10-04T02:05:55.546Z,7.40
2022-10-04T02:08:49.562Z,7.30
2022-10-04T02:11:39.586Z,7.30
2022-10-04T02:14:33.314Z,7.40
2022-10-04T02:17:25.241Z,7.40
2022-10-04T02:20:18.075Z,7.40
2022-10-04T02:23:06.979Z,7.60
2022-10-04T02:25:55.692Z,7.60
2022-10-04T02:28:44.442Z,7.60
2022-10-04T02:31:52.443Z,7.50
2022-10-04T02:34:42.076Z,7.60
2022-10-04T02:37:31.031Z,7.60
2022-10-04T02:40:23.566Z,7.60
2022-10-04T02:43:18.401Z,7.50
2022-10-04T02:46:15.209Z,7.50
2022-10-04T02:49:11.562Z,7.50
2022-10-04T02:52:06.985Z,7.50
2022-10-04T02:55:03.143Z,7.50
2022-10-04T02:57:52.601Z,7.40
2022-10-04T03:00:49.516Z,7.40
2022-10-04T03:03:40.564Z,7.40
2022-10-04T03:06:34.379Z,7.50
2022-10-04T03:09:29.606Z,7.50
2022-10-04T03:12:18.841Z,7.70
2022-10-04T03:15:10.686Z,7.70
2022-10-04T03:18:01.009Z,7.70
2022-10-04T03:20:50.003Z,7.70
2022-10-04T03:23:40.917Z,7.60
2022-10-04T03:26:34.667Z,7.50
2022-10-04T03:29:27.764Z,7.50
2022-10-04T03:32:19.026Z,7.50
2022-10-04T03:35:18.729Z,7.50
2022-10-04T03:38:12.579Z,7.50
2022-10-04T03:41:03.905Z,7.60
2022-10-04T03:43:54.336Z,7.60
2022-10-04T03:46:45.496Z,7.60
2022-10-04T03:49:38.372Z,7.50
2022-10-04T03:52:30.469Z,7.50
2022-10-04T03:55:20.192Z,7.50
2022-10-04T03:58:11.613Z,7.50
2022-10-04T04:01:15.098Z,7.50
2022-10-04T04:04:12.936Z,7.50
2022-10-04T04:07:04.561Z,7.50
2022-10-04T04:09:57.512Z,7.60
2022-10-04T04:12:51.243Z,7.70
2022-10-04T04:15:41.989Z,7.70
2022-10-04T04:18:35.353Z,7.80
2022-10-04T04:21:26.994Z,7.80
2022-10-04T04:24:23.855Z,7.90
2022-10-04T04:27:14.585Z,7.80
2022-10-04T04:30:06.918Z,7.90
2022-10-04T04:32:58.993Z,7.90
2022-10-04T04:35:47.617Z,8.00
2022-10-04T04:38:56.605Z,8.00
2022-10-04T04:41:50.196Z,7.90
2022-10-04T04:44:47.129Z,7.90
2022-10-04T04:47:40.828Z,7.70
2022-10-04T04:50:34.309Z,7.70
2022-10-04T04:53:25.634Z,7.70
2022-10-04T04:56:19.305Z,7.70
2022-10-04T04:59:09.286Z,7.70
2022-10-04T05:01:58.047Z,8.00
2022-10-04T05:04:46.796Z,8.00
2022-10-04T05:07:36.920Z,8.10
2022-10-04T05:10:32.543Z,8.20
2022-10-04T05:13:21.260Z,8.30
2022-10-04T05:16:15.186Z,8.30
2022-10-04T05:19:07.220Z,8.30
2022-10-04T05:21:58.495Z,8.30
2022-10-04T05:24:53.295Z,8.30
2022-10-04T05:27:45.007Z,8.30
2022-10-04T05:31:05.467Z,8.30
2022-10-04T05:33:58.379Z,8.30
2022-10-04T05:37:10.450Z,8.30
2022-10-04T05:40:17.215Z,8.20
2022-10-04T05:43:22.861Z,8.10
2022-10-04T05:46:23.354Z,8.10
2022-10-04T05:49:19.196Z,8.00
2022-10-04T05:52:16.876Z,7.90
2022-10-04T05:55:27.268Z,7.90
2022-10-04T05:58:33.881Z,7.80
2022-10-04T06:01:34.653Z,7.70
2022-10-04T06:04:57.130Z,7.70
2022-10-04T06:07:54.536Z,7.50
2022-10-04T06:11:00.195Z,7.30
2022-10-04T06:14:11.599Z,7.30
2022-10-04T06:17:29.134Z,7.30
2022-10-04T06:20:50.904Z,7.20
2022-10-04T06:23:46.455Z,7.30
2022-10-04T06:26:43.505Z,7.40
2022-10-04T06:29:36.356Z,7.50
2022-10-04T06:33:01.572Z,7.60
2022-10-04T06:36:19.565Z,7.70
2022-10-04T06:39:31.198Z,7.70
2022-10-04T06:42:48.843Z,7.80
2022-10-04T06:46:06.455Z,7.90
2022-10-04T06:49:42.041Z,8.10
2022-10-04T06:52:48.020Z,8.30
2022-10-04T06:55:49.898Z,8.40
2022-10-04T06:59:11.243Z,8.40
2022-10-04T07:02:04.071Z,8.50
2022-10-04T07:05:15.034Z,8.60
2022-10-04T07:08:12.071Z,8.60
2022-10-04T07:11:06.519Z,8.80
2022-10-04T07:14:01.990Z,9.00
2022-10-04T07:16:57.135Z,9.10
2022-10-04T07:19:49.527Z,9.10
2022-10-04T07:22:46.367Z,9.10
2022-10-04T07:25:42.760Z,9.10
2022-10-04T07:28:52.085Z,9.20
2022-10-04T07:31:43.043Z,9.30
2022-10-04T07:34:37.703Z,9.60
2022-10-04T07:37:29.149Z,10.00
2022-10-04T07:40:25.666Z,10.30
2022-10-04T07:43:27.044Z,10.60
2022-10-04T07:46:23.227Z,10.90
2022-10-04T07:49:15.736Z,11.20
2022-10-04T07:52:42.112Z,11.20
2022-10-04T07:55:40.394Z,11.20
2022-10-04T07:58:49.508Z,11.20
2022-10-04T08:01:46.735Z,11.30
2022-10-04T08:04:45.878Z,11.30
2022-10-04T08:07:51.400Z,11.50
2022-10-04T08:10:48.096Z,11.60
2022-10-04T08:13:47.379Z,11.80
2022-10-04T08:16:38.621Z,11.80
2022-10-04T08:19:51.401Z,11.80
2022-10-04T08:22:53.585Z,11.90
2022-10-04T08:25:50.362Z,12.10
2022-10-04T08:29:08.284Z,12.20
2022-10-04T08:32:07.209Z,12.20
2022-10-04T08:35:29.540Z,12.40
2022-10-04T08:38:37.232Z,12.60
2022-10-04T08:42:08.155Z,12.70
2022-10-04T08:45:34.888Z,12.80
2022-10-04T08:48:59.090Z,12.90
2022-10-04T08:52:20.088Z,13.00
2022-10-04T08:55:39.051Z,13.30
2022-10-04T08:59:06.857Z,13.60
2022-10-04T09:02:58.570Z,13.80
2022-10-04T09:06:00.186Z,13.70
2022-10-04T09:09:19.082Z,13.70
2022-10-04T09:12:37.173Z,13.60
2022-10-04T09:15:39.773Z,13.50
2022-10-04T09:18:51.957Z,13.50
2022-10-04T09:21:53.448Z,13.50
2022-10-04T09:25:22.809Z,13.60
2022-10-04T09:28:54.691Z,13.80
2022-10-04T09:32:17.017Z,14.00
2022-10-04T09:35:40.276Z,14.00
2022-10-04T09:39:29.425Z,14.10
2022-10-04T09:42:57.710Z,14.00
2022-10-04T09:46:22.410Z,13.80
2022-10-04T09:49:23.203Z,13.70
2022-10-04T09:52:35.480Z,13.80
2022-10-04T09:55:41.477Z,13.90
2022-10-04T09:59:01.130Z,14.00
2022-10-04T10:02:10.411Z,14.10
2022-10-04T10:05:28.421Z,14.10
2022-10-04T10:08:28.425Z,13.80
2022-10-04T10:11:40.673Z,13.50
2022-10-04T10:14:55.186Z,13.60
2022-10-04T10:17:56.846Z,13.90
2022-10-04T10:21:03.356Z,14.10
2022-10-04T10:24:15.151Z,14.30
2022-10-04T10:27:35.419Z,14.40
2022-10-04T10:30:35.370Z,14.30
2022-10-04T10:33:47.100Z,14.20
2022-10-04T10:36:50.125Z,14.30
2022-10-04T10:40:17.129Z,14.40
2022-10-04T10:43:31.430Z,14.70
2022-10-04T10:46:33.150Z,14.70
2022-10-04T10:49:40.615Z,14.80
2022-10-04T10:53:08.530Z,14.70
2022-10-04T10:56:31.655Z,14.90
2022-10-04T10:59:52.780Z,14.80
2022-10-04T11:03:23.869Z,14.80
2022-10-04T11:06:38.428Z,15.00
2022-10-04T11:09:56.695Z,15.10
2022-10-04T11:13:21.460Z,15.10
2022-10-04T11:16:51.233Z,15.10
2022-10-04T11:20:25.185Z,15.20
2022-10-04T11:24:02.487Z,15.20
2022-10-04T11:27:07.314Z,15.30
2022-10-04T11:30:16.014Z,15.20
2022-10-04T11:33:36.192Z,15.20
2022-10-04T11:36:57.736Z,15.30
2022-10-04T11:40:04.344Z,15.40
2022-10-04T11:43:16.415Z,15.30
2022-10-04T11:46:22.721Z,15.40
2022-10-04T11:49:36.395Z,15.40
2022-10-04T11:52:50.207Z,15.50
2022-10-04T11:56:04.654Z,15.70
2022-10-04T11:59:11.836Z,15.90
2022-10-04T12:02:50.382Z,16.10
2022-10-04T12:06:22.854Z,16.00
2022-10-04T12:09:19.283Z,16.10
2022-10-04T12:12:39.517Z,16.10
2022-10-04T12:15:52.897Z,16.10
2022-10-04T12:19:05.819Z,16.10
2022-10-04T12:22:13.531Z,16.10
2022-10-04T12:25:35.085Z,16.20
2022-10-04T12:29:05.740Z,16.30
2022-10-04T12:31:59.235Z,16.50
2022-10-04T12:34:57.688Z,16.50
2022-10-04T12:38:16.351Z,16.60
2022-10-04T12:41:17.540Z,16.80
2022-10-04T12:44:29.413Z,16.60
2022-10-04T12:47:50.594Z,16.60
2022-10-04T12:51:01.358Z,16.50
2022-10-04T12:53:58.701Z,16.60
2022-10-04T12:56:55.126Z,16.70
2022-10-04T12:59:55.077Z,16.70
2022-10-04T13:03:09.325Z,16.90
2022-10-04T13:06:07.390Z,16.80
2022-10-04T13:09:07.300Z,16.80
2022-10-04T13:12:10.028Z,16.80
2022-10-04T13:15:14.709Z,16.80
2022-10-04T13:18:20.199Z,16.70
2022-10-04T13:21:11.421Z,16.70
2022-10-04T13:24:06.364Z,16.70
2022-10-04T13:26:59.913Z,16.80
2022-10-04T13:30:00.465Z,16.70
2022-10-04T13:33:04.118Z,16.70
2022-10-04T13:36:01.397Z,16.70
2022-10-04T13:39:21.175Z,16.70
2022-10-04T13:42:30.310Z,16.60
2022-10-04T13:45:41.209Z,16.60
2022-10-04T13:48:49.752Z,16.50
2022-10-04T13:52:18.198Z,16.40
2022-10-04T13:55:44.743Z,16.40
2022-10-04T13:58:46.732Z,16.20
2022-10-04T14:02:23.497Z,16.20
2022-10-04T14:05:33.234Z,16.10
2022-10-04T14:08:48.487Z,16.00
2022-10-04T14:12:26.066Z,15.90
2022-10-04T14:15:54.926Z,16.00
2022-10-04T14:19:21.312Z,15.90
2022-10-04T14:22:51.752Z,15.80
2022-10-04T14:25:57.028Z,15.70
2022-10-04T14:29:19.364Z,15.80
2022-10-04T14:32:33.200Z,15.70
2022-10-04T14:35:27.376Z,15.70
2022-10-04T14:38:49.300Z,15.60
2022-10-04T14:42:23.954Z,15.50
2022-10-04T14:45:27.215Z,15.40
2022-10-04T14:48:45.998Z,15.40
2022-10-04T14:52:04.389Z,15.50
2022-10-04T14:55:00.568Z,15.40
2022-10-04T14:58:02.815Z,15.40
2022-10-04T15:01:08.326Z,15.40
2022-10-04T15:04:26.081Z,15.30
2022-10-04T15:07:21.545Z,15.30
2022-10-04T15:10:20.228Z,15.30
2022-10-04T15:13:19.181Z,15.30
2022-10-04T15:16:16.920Z,15.30
2022-10-04T15:19:11.361Z,15.20
2022-10-04T15:22:09.017Z,15.00
2022-10-04T15:24:59.574Z,15.00
2022-10-04T15:27:56.950Z,15.00
2022-10-04T15:30:55.227Z,14.90
2022-10-04T15:33:58.438Z,14.90
2022-10-04T15:37:12.182Z,14.90
2022-10-04T15:40:37.992Z,14.90
2022-10-04T15:43:31.668Z,14.80
2022-10-04T15:46:47.720Z,14.80
2022-10-04T15:49:54.307Z,14.80
2022-10-04T15:53:25.888Z,14.70
2022-10-04T15:56:27.291Z,14.70
2022-10-04T15:59:29.743Z,14.70
2022-10-04T16:02:46.813Z,14.70
2022-10-04T16:05:39.472Z,14.60
2022-10-04T16:09:14.149Z,14.60
2022-10-04T16:12:24.272Z,14.50
2022-10-04T16:15:21.589Z,14.40
2022-10-04T16:18:32.377Z,14.30
2022-10-04T16:21:29.810Z,14.30
2022-10-04T16:24:45.707Z,14.20
2022-10-04T16:27:51.247Z,14.20
2022-10-04T16:30:44.948Z,14.10
2022-10-04T16:33:40.350Z,14.00
2022-10-04T16:36:44.119Z,14.00
2022-10-04T16:39:57.918Z,13.90
2022-10-04T16:42:55.912Z,13.90
2022-10-04T16:46:09.555Z,13.80
2022-10-04T16:49:01.227Z,13.70
2022-10-04T16:52:22.932Z,13.60
2022-10-04T16:55:43.778Z,13.50
2022-10-04T16:59:02.722Z,13.40
2022-10-04T17:02:18.296Z,13.40
2022-10-04T17:05:38.407Z,13.30
2022-10-04T17:08:48.401Z,13.20
2022-10-04T17:11:44.402Z,13.10
2022-10-04T17:15:14.476Z,13.00
2022-10-04T17:18:19.349Z,13.00
2022-10-04T17:21:31.568Z,12.90
2022-10-04T17:24:30.673Z,12.80
2022-10-04T17:27:28.337Z,12.70
2022-10-04T17:30:21.667Z,12.70
2022-10-04T17:33:32.330Z,12.60
2022-10-04T17:36:35.591Z,12.60
2022-10-04T17:39:41.309Z,12.50
2022-10-04T17:42:37.383Z,12.50
2022-10-04T17:45:44.070Z,12.50
2022-10-04T17:49:01.869Z,12.40
2022-10-04T17:52:09.991Z,12.40
2022-10-04T17:55:16.937Z,12.40
2022-10-04T17:58:13.691Z,12.30
2022-10-04T18:01:08.098Z,12.30
2022-10-04T18:04:09.062Z,12.30
2022-10-04T18:07:05.643Z,12.20
2022-10-04T18:09:57.336Z,12.20
2022-10-04T18:12:52.987Z,12.20
2022-10-04T18:15:49.555Z,12.10
2022-10-04T18:18:43.126Z,12.20
2022-10-04T18:21:33.582Z,12.20
2022-10-04T18:24:29.200Z,12.20
2022-10-04T18:27:21.844Z,12.20
2022-10-04T18:30:15.362Z,12.10
2022-10-04T18:33:05.347Z,12.10
2022-10-04T18:36:00.990Z,12.20
2022-10-04T18:39:04.557Z,12.20
2022-10-04T18:42:16.489Z,12.20
2022-10-04T18:45:21.363Z,12.20
2022-10-04T18:48:16.312Z,12.20
2022-10-04T18:51:25.676Z,12.20
2022-10-04T18:54:26.328Z,12.20
2022-10-04T18:57:25.756Z,12.10
2022-10-04T19:00:33.155Z,12.10
2022-10-04T19:03:29.967Z,12.10
2022-10-04T19:06:24.181Z,12.00
2022-10-04T19:09:21.357Z,12.00
2022-10-04T19:12:17.136Z,12.00
2022-10-04T19:15:17.443Z,12.00
2022-10-04T19:18:36.871Z,11.90
2022-10-04T19:21:31.673Z,11.90
2022-10-04T19:24:48.717Z,12.00
2022-10-04T19:27:40.313Z,12.00
2022-10-04T19:30:39.478Z,11.90
2022-10-04T19:33:36.554Z,12.00
2022-10-04T19:36:46.904Z,11.70
2022-10-04T19:39:43.415Z,11.60
2022-10-04T19:42:43.911Z,11.50
2022-10-04T19:45:39.062Z,11.40
2022-10-04T19:48:29.303Z,11.40
2022-10-04T19:51:23.277Z,11.30
2022-10-04T19:54:15.818Z,11.30
2022-10-04T19:57:10.333Z,11.30
2022-10-04T20:00:00.902Z,11.20
2022-10-04T20:02:50.096Z,11.20
2022-10-04T20:05:44.634Z,11.10
2022-10-04T20:09:02.430Z,11.00
2022-10-04T20:11:53.765Z,11.00
2022-10-04T20:14:47.108Z,10.90
2022-10-04T20:17:37.918Z,10.90
2022-10-04T20:21:07.138Z,10.80
2022-10-04T20:23:57.122Z,10.80
2022-10-04T20:26:54.815Z,10.80
2022-10-04T20:30:05.854Z,10.80
2022-10-04T20:33:01.140Z,10.70
2022-10-04T20:36:09.302Z,10.80
2022-10-04T20:39:02.094Z,10.80
2022-10-04T20:42:24.840Z,11.00
2022-10-04T20:45:30.528Z,11.20
2022-10-04T20:48:23.114Z,11.30
2022-10-04T20:51:12.101Z,11.30
2022-10-04T20:54:01.544Z,11.20
2022-10-04T20:56:56.298Z,11.20
2022-10-04T20:59:44.936Z,11.20
2022-10-04T21:02:34.566Z,11.30
2022-10-04T21:05:25.789Z,11.50
2022-10-04T21:08:15.966Z,11.60
2022-10-04T21:11:22.505Z,11.70
2022-10-04T21:14:23.926Z,11.70
2022-10-04T21:17:38.392Z,11.60
2022-10-04T21:20:47.090Z,11.50
2022-10-04T21:23:36.546Z,11.50
2022-10-04T21:26:26.558Z,11.40
2022-10-04T21:29:15.192Z,11.30
2022-10-04T21:32:04.070Z,11.30
2022-10-04T21:34:54.081Z,11.30
2022-10-04T21:37:44.729Z,11.40
2022-10-04T21:40:33.352Z,11.50
2022-10-04T21:43:21.952Z,11.50
2022-10-04T21:46:10.631Z,11.50
2022-10-04T21:48:59.308Z,11.50
2022-10-04T21:51:47.968Z,11.40
2022-10-04T21:54:37.974Z,11.40
2022-10-04T21:57:26.605Z,11.50
2022-10-04T22:00:15.353Z,11.50
2022-10-04T22:03:04.013Z,11.50
2022-10-04T22:05:52.740Z,11.50
2022-10-04T22:08:43.052Z,11.50
2022-10-04T22:11:33.269Z,11.50
2022-10-04T22:14:21.897Z,11.70
2022-10-04T22:17:10.548Z,11.70
2022-10-04T22:19:59.163Z,11.70
2022-10-04T22:22:48.126Z,11.70
2022-10-04T22:25:36.718Z,11.70
2022-10-04T22:28:28.903Z,11.70
2022-10-04T22:31:19.576Z,11.60
2022-10-04T22:34:16.844Z,11.60
2022-10-04T22:37:07.105Z,11.50
2022-10-04T22:39:57.603Z,11.40
2022-10-04T22:42:46.938Z,11.30
2022-10-04T22:45:37.939Z,11.20
2022-10-04T22:48:29.040Z,11.10
2022-10-04T22:51:17.670Z,11.00
2022-10-04T22:54:12.376Z,11.00
2022-10-04T22:57:01.456Z,10.90
2022-10-04T22:59:51.699Z,10.80
2022-10-04T23:02:41.990Z,10.80
2022-10-04T23:05:30.698Z,10.70
2022-10-04T23:08:19.343Z,10.70
2022-10-04T23:11:08.528Z,10.70
2022-10-04T23:13:59.042Z,10.60
2022-10-04T23:16:48.030Z,10.60
2022-10-04T23:19:38.261Z,10.50
2022-10-04T23:22:30.264Z,10.50
2022-10-04T23:25:21.506Z,10.50
2022-10-04T23:28:14.529Z,10.50
2022-10-04T23:31:12.569Z,10.50
2022-10-04T23:34:01.957Z,10.70
2022-10-04T23:36:53.656Z,10.80
2022-10-04T23:39:42.728Z,10.80
2022-10-04T23:42:36.863Z,10.90
2022-10-04T23:45:26.905Z,10.90
2022-10-04T23:48:23.957Z,10.90
2022-10-04T23:51:15.228Z,11.00
2022-10-04T23:54:07.253Z,11.00
2022-10-04T23:56:55.924Z,11.00
2022-10-04T23:59:44.633Z,11.00
